createdAt,value
2018-09-02T00:00:16.886Z,102602.16
2018-09-02T00:02:45.818Z,102596.81
2018-09-02T00:05:14.155Z,102605.11
2018-09-02T00:07:42.467Z,102602.16
2018-09-02T00:10:10.808Z,102602.55
2018-09-02T00:12:39.121Z,102601.74
2018-09-02T00:15:06.874Z,102602.94
2018-09-02T00:17:35.812Z,102604.44
2018-09-02T00:20:04.134Z,102608.81
2018-09-02T00:22:31.893Z,102609.77
2018-09-02T00:25:00.797Z,102610.84
2018-09-02T00:27:28.546Z,102616.02
2018-09-02T00:29:57.450Z,102615.06
2018-09-02T00:32:26.169Z,102616.62
2018-09-02T00:34:53.922Z,102619.20
2018-09-02T00:37:22.830Z,102620.41
2018-09-02T00:39:51.195Z,102619.79
2018-09-02T00:42:19.522Z,102621.38
2018-09-02T00:44:47.853Z,102627.13
2018-09-02T00:47:17.373Z,102633.39
2018-09-02T00:49:44.750Z,102628.13
2018-09-02T00:52:13.659Z,102627.75
2018-09-02T00:54:41.988Z,102625.11
2018-09-02T00:57:09.739Z,102622.29
2018-09-02T00:59:38.668Z,102618.77
2018-09-02T01:02:06.980Z,102615.53
2018-09-02T01:04:34.722Z,102615.58
2018-09-02T01:07:03.062Z,102613.84
2018-09-02T01:09:31.399Z,102611.72
2018-09-02T01:11:59.789Z,102614.18
2018-09-02T01:14:28.636Z,102616.31
2018-09-02T01:16:56.382Z,102621.66
2018-09-02T01:19:25.432Z,102620.05
2018-09-02T01:21:53.791Z,102616.72
2018-09-02T01:24:22.175Z,102618.64
2018-09-02T01:26:50.494Z,102617.99
2018-09-02T01:29:18.828Z,102619.27
2018-09-02T01:31:47.156Z,102622.03
2018-09-02T01:34:16.247Z,102621.50
2018-09-02T01:36:44.586Z,102619.66
2018-09-02T01:39:12.921Z,102617.20
2018-09-02T01:41:41.251Z,102624.11
2018-09-02T01:44:08.998Z,102625.09
2018-09-02T01:46:37.323Z,102626.11
2018-09-02T01:49:07.082Z,102625.72
2018-09-02T01:51:34.836Z,102628.20
2018-09-02T01:54:03.770Z,102630.42
2018-09-02T01:56:31.517Z,102629.57
2018-09-02T01:59:00.423Z,102628.72
2018-09-02T02:01:28.774Z,102623.65
2018-09-02T02:03:57.099Z,102623.84
2018-09-02T02:06:25.432Z,102626.92
2018-09-02T02:08:53.185Z,102627.31
2018-09-02T02:11:22.096Z,102627.69
2018-09-02T02:13:50.426Z,102625.44
2018-09-02T02:16:18.177Z,102628.02
2018-09-02T02:18:47.089Z,102626.93
2018-09-02T02:21:15.479Z,102626.59
2018-09-02T02:23:43.813Z,102632.73
2018-09-02T02:26:12.139Z,102629.53
2018-09-02T02:28:40.465Z,102632.63
2018-09-02T02:31:08.799Z,102629.44
2018-09-02T02:33:37.120Z,102634.62
2018-09-02T02:36:04.866Z,102633.16
2018-09-02T02:38:33.184Z,102629.45
2018-09-02T02:41:02.093Z,102627.66
2018-09-02T02:43:29.841Z,102629.05
2018-09-02T02:45:58.770Z,102630.41
2018-09-02T02:48:27.110Z,102629.69
2018-09-02T02:50:56.595Z,102629.52
2018-09-02T02:53:23.768Z,102633.39
2018-09-02T02:55:52.106Z,102631.36
2018-09-02T02:58:20.439Z,102630.75
2018-09-02T03:00:48.197Z,102634.03
2018-09-02T03:03:16.522Z,102640.75
2018-09-02T03:05:45.424Z,102644.77
2018-09-02T03:08:13.744Z,102648.38
2018-09-02T03:10:41.535Z,102653.27
2018-09-02T03:13:10.396Z,102654.72
2018-09-02T03:15:38.725Z,102656.20
2018-09-02T03:18:06.465Z,102651.63
2018-09-02T03:20:35.378Z,102652.86
2018-09-02T03:23:03.575Z,102655.70
2018-09-02T03:25:32.052Z,102661.27
2018-09-02T03:27:59.786Z,102664.34
2018-09-02T03:30:28.688Z,102664.66
2018-09-02T03:32:57.017Z,102660.89
2018-09-02T03:35:25.339Z,102661.98
2018-09-02T03:37:53.664Z,102664.42
2018-09-02T03:40:22.006Z,102663.35
2018-09-02T03:42:50.322Z,102664.92
2018-09-02T03:45:18.071Z,102661.48
2018-09-02T03:47:46.979Z,102661.19
2018-09-02T03:50:15.326Z,102663.62
2018-09-02T03:52:43.076Z,102664.14
2018-09-02T03:55:11.394Z,102670.64
2018-09-02T03:57:40.305Z,102672.30
2018-09-02T04:00:08.634Z,102673.76
2018-09-02T04:02:36.967Z,102673.63
2018-09-02T04:05:05.288Z,102674.14
2018-09-02T04:07:33.069Z,102676.14
2018-09-02T04:10:01.996Z,102672.26
2018-09-02T04:12:30.322Z,102676.77
2018-09-02T04:14:58.661Z,102678.44
2018-09-02T04:17:26.994Z,102678.98
2018-09-02T04:19:55.306Z,102677.08
2018-09-02T04:22:23.630Z,102675.38
2018-09-02T04:24:51.961Z,102675.36
2018-09-02T04:27:20.279Z,102676.22
2018-09-02T04:29:48.019Z,102679.16
2018-09-02T04:32:16.926Z,102679.24
2018-09-02T04:34:45.271Z,102675.66
2018-09-02T04:37:13.586Z,102677.37
2018-09-02T04:39:41.943Z,102673.72
2018-09-02T04:42:10.270Z,102674.80
2018-09-02T04:44:38.594Z,102671.75
2018-09-02T04:47:06.917Z,102675.03
2018-09-02T04:49:35.272Z,102671.49
2018-09-02T04:52:03.600Z,102671.32
2018-09-02T04:54:31.987Z,102667.37
2018-09-02T04:57:00.263Z,102664.74
2018-09-02T04:59:28.594Z,102663.11
2018-09-02T05:01:56.346Z,102659.21
2018-09-02T05:04:24.674Z,102663.25
2018-09-02T05:06:53.579Z,102664.08
2018-09-02T05:09:21.909Z,102662.80
2018-09-02T05:11:49.658Z,102664.48
2018-09-02T05:14:18.764Z,102662.06
2018-09-02T05:16:46.884Z,102663.39
2018-09-02T05:19:14.639Z,102663.73
2018-09-02T05:21:43.540Z,102667.48
2018-09-02T05:24:11.869Z,102669.11
2018-09-02T05:26:40.208Z,102672.70
2018-09-02T05:29:07.953Z,102678.52
2018-09-02T05:31:36.849Z,102677.69
2018-09-02T05:34:04.595Z,102675.81
2018-09-02T05:36:32.939Z,102677.95
2018-09-02T05:39:01.831Z,102681.97
2018-09-02T05:41:29.590Z,102684.19
2018-09-02T05:43:58.497Z,102680.18
2018-09-02T05:46:26.817Z,102680.61
2018-09-02T05:48:55.153Z,102687.12
2018-09-02T05:51:23.243Z,102682.02
2018-09-02T05:53:51.836Z,102685.09
2018-09-02T05:56:20.763Z,102686.97
2018-09-02T05:58:48.505Z,102687.33
2018-09-02T06:01:16.259Z,102687.98
2018-09-02T06:03:44.618Z,102688.94
2018-09-02T06:06:13.528Z,102694.52
2018-09-02T06:08:41.856Z,102697.86
2018-09-02T06:11:10.215Z,102700.23
2018-09-02T06:13:38.531Z,102709.25
2018-09-02T06:16:06.279Z,102711.94
2018-09-02T06:18:35.186Z,102705.34
2018-09-02T06:21:03.517Z,102704.41
2018-09-02T06:23:31.859Z,102710.76
2018-09-02T06:26:00.205Z,102706.59
2018-09-02T06:28:28.624Z,102711.09
2018-09-02T06:30:56.954Z,102713.20
2018-09-02T06:33:25.279Z,102722.82
2018-09-02T06:35:53.611Z,102726.14
2018-09-02T06:38:22.081Z,102728.14
2018-09-02T06:40:49.849Z,102731.95
2018-09-02T06:43:18.766Z,102732.74
2018-09-02T06:45:47.169Z,102737.05
2018-09-02T06:48:15.446Z,102739.34
2018-09-02T06:50:43.194Z,102740.36
2018-09-02T06:53:12.105Z,102739.92
2018-09-02T06:55:39.859Z,102739.52
2018-09-02T06:58:08.203Z,102742.37
2018-09-02T07:00:37.110Z,102743.78
2018-09-02T07:03:04.860Z,102745.09
2018-09-02T07:05:33.274Z,102744.16
2018-09-02T07:08:02.142Z,102741.91
2018-09-02T07:10:30.694Z,102741.69
2018-09-02T07:12:58.221Z,102738.76
2018-09-02T07:15:27.120Z,102734.73
2018-09-02T07:17:55.450Z,102736.40
2018-09-02T07:20:23.781Z,102733.97
2018-09-02T07:22:52.099Z,102732.26
2018-09-02T07:25:19.859Z,102731.70
2018-09-02T07:27:48.767Z,102734.48
2018-09-02T07:30:17.180Z,102734.95
2018-09-02T07:32:45.498Z,102731.53
2018-09-02T07:35:14.354Z,102728.55
2018-09-02T07:37:42.458Z,102730.19
2018-09-02T07:40:10.798Z,102731.05
2018-09-02T07:42:38.540Z,102728.50
2018-09-02T07:45:07.466Z,102731.13
2018-09-02T07:47:35.821Z,102730.42
2018-09-02T07:50:04.149Z,102730.09
2018-09-02T07:52:32.476Z,102732.21
2018-09-02T07:55:00.254Z,102737.78
2018-09-02T07:57:29.692Z,102734.36
2018-09-02T07:59:58.018Z,102731.32
2018-09-02T08:02:26.141Z,102727.68
2018-09-02T08:04:53.895Z,102731.72
2018-09-02T08:07:22.792Z,102732.16
2018-09-02T08:09:51.129Z,102731.31
2018-09-02T08:12:19.396Z,102729.36
2018-09-02T08:14:47.817Z,102732.00
2018-09-02T08:17:16.145Z,102732.43
2018-09-02T08:19:44.473Z,102732.69
2018-09-02T08:22:12.805Z,102734.30
2018-09-02T08:24:41.132Z,102733.98
2018-09-02T08:27:09.782Z,102734.47
2018-09-02T08:29:38.919Z,102739.41
2018-09-02T08:32:07.030Z,102732.69
2018-09-02T08:34:35.387Z,102738.82
2018-09-02T08:37:03.713Z,102739.12
2018-09-02T08:39:32.085Z,102742.58
2018-09-02T08:42:00.363Z,102740.95
2018-09-02T08:44:28.691Z,102739.30
2018-09-02T08:46:57.013Z,102740.41
2018-09-02T08:49:25.364Z,102740.72
2018-09-02T08:51:53.086Z,102748.30
2018-09-02T08:54:21.416Z,102747.78
2018-09-02T08:56:50.327Z,102747.81
2018-09-02T08:59:18.665Z,102748.23
2018-09-02T09:01:47.200Z,102744.30
2018-09-02T09:04:15.432Z,102744.77
2018-09-02T09:06:43.286Z,102745.31
2018-09-02T09:09:11.784Z,102751.77
2018-09-02T09:11:40.521Z,102750.81
2018-09-02T09:14:08.919Z,102754.22
2018-09-02T09:16:37.223Z,102753.98
2018-09-02T09:19:04.910Z,102754.21
2018-09-02T09:21:33.949Z,102753.75
2018-09-02T09:24:01.688Z,102756.59
2018-09-02T09:26:30.547Z,102749.36
2018-09-02T09:28:58.860Z,102749.52
2018-09-02T09:31:27.209Z,102747.55
2018-09-02T09:33:55.562Z,102744.63
2018-09-02T09:36:23.313Z,102746.32
2018-09-02T09:38:52.219Z,102742.80
2018-09-02T09:41:19.955Z,102747.30
2018-09-02T09:43:48.866Z,102742.78
2018-09-02T09:46:17.191Z,102739.59
2018-09-02T09:48:44.943Z,102738.53
2018-09-02T09:51:13.538Z,102737.81
2018-09-02T09:53:42.459Z,102736.11
2018-09-02T09:56:10.760Z,102735.50
2018-09-02T09:58:39.082Z,102736.73
2018-09-02T10:01:07.410Z,102738.32
2018-09-02T10:03:35.178Z,102736.47
2018-09-02T10:06:04.063Z,102734.98
2018-09-02T10:08:32.394Z,102736.58
2018-09-02T10:11:00.871Z,102740.09
2018-09-02T10:13:29.190Z,102735.13
2018-09-02T10:15:57.510Z,102736.28
2018-09-02T10:18:25.828Z,102740.09
2018-09-02T10:20:54.145Z,102742.25
2018-09-02T10:23:21.885Z,102740.73
2018-09-02T10:25:50.209Z,102735.28
2018-09-02T10:28:19.147Z,102732.31
2018-09-02T10:30:47.476Z,102732.34
2018-09-02T10:33:15.266Z,102735.39
2018-09-02T10:35:43.579Z,102735.44
2018-09-02T10:38:12.496Z,102736.77
2018-09-02T10:40:40.240Z,102728.24
2018-09-02T10:43:08.570Z,102724.66
2018-09-02T10:45:37.468Z,102730.08
2018-09-02T10:48:05.204Z,102733.58
2018-09-02T10:50:34.140Z,102729.95
2018-09-02T10:53:02.455Z,102730.28
2018-09-02T10:55:30.774Z,102721.00
2018-09-02T10:57:59.097Z,102721.86
2018-09-02T11:00:27.916Z,102716.74
2018-09-02T11:02:56.238Z,102711.91
2018-09-02T11:05:24.622Z,102713.05
2018-09-02T11:07:53.029Z,102719.70
2018-09-02T11:10:20.770Z,102717.00
2018-09-02T11:12:49.681Z,102716.77
2018-09-02T11:15:18.025Z,102709.85
2018-09-02T11:17:46.357Z,102718.81
2018-09-02T11:20:14.732Z,102717.87
2018-09-02T11:22:43.643Z,102718.49
2018-09-02T11:25:12.402Z,102715.03
2018-09-02T11:27:40.823Z,102719.08
2018-09-02T11:30:09.204Z,102711.66
2018-09-02T11:32:38.474Z,102714.16
2018-09-02T11:35:06.797Z,102708.69
2018-09-02T11:37:35.171Z,102709.05
2018-09-02T11:40:03.588Z,102703.30
2018-09-02T11:42:31.919Z,102701.94
2018-09-02T11:45:00.301Z,102701.67
2018-09-02T11:47:28.567Z,102704.11
2018-09-02T11:49:56.896Z,102701.98
2018-09-02T11:52:25.237Z,102697.34
2018-09-02T11:54:53.563Z,102696.91
2018-09-02T11:57:21.898Z,102698.34
2018-09-02T11:59:50.209Z,102697.00
2018-09-02T12:02:18.537Z,102694.22
2018-09-02T12:04:46.937Z,102691.62
2018-09-02T12:07:15.196Z,102696.83
2018-09-02T12:09:43.564Z,102698.96
2018-09-02T12:12:11.893Z,102694.62
2018-09-02T12:14:40.249Z,102696.11
2018-09-02T12:17:08.549Z,102693.84
2018-09-02T12:19:36.877Z,102693.92
2018-09-02T12:22:05.199Z,102690.03
2018-09-02T12:24:33.525Z,102691.72
2018-09-02T12:27:01.849Z,102688.65
2018-09-02T12:29:30.403Z,102690.28
2018-09-02T12:31:58.502Z,102690.47
2018-09-02T12:34:26.249Z,102691.64
2018-09-02T12:36:54.573Z,102691.23
2018-09-02T12:39:22.949Z,102681.39
2018-09-02T12:41:51.278Z,102686.64
2018-09-02T12:44:19.621Z,102685.34
2018-09-02T12:46:48.563Z,102685.47
2018-09-02T12:49:16.899Z,102682.19
2018-09-02T12:51:45.236Z,102681.69
2018-09-02T12:54:13.617Z,102682.12
2018-09-02T12:56:41.889Z,102681.08
2018-09-02T12:59:10.218Z,102686.48
2018-09-02T13:01:38.804Z,102678.63
2018-09-02T13:04:06.916Z,102679.41
2018-09-02T13:06:36.093Z,102674.78
2018-09-02T13:09:07.067Z,102680.50
2018-09-02T13:11:34.812Z,102672.44
2018-09-02T13:14:04.557Z,102674.82
2018-09-02T13:16:32.985Z,102680.55
2018-09-02T13:19:02.329Z,102684.55
2018-09-02T13:21:32.557Z,102676.90
2018-09-02T13:24:00.127Z,102680.13
2018-09-02T13:26:29.371Z,102678.66
2018-09-02T13:28:57.202Z,102675.08
2018-09-02T13:31:26.532Z,102668.75
2018-09-02T13:33:55.519Z,102670.72
2018-09-02T13:36:23.842Z,102667.45
2018-09-02T13:38:52.142Z,102669.37
2018-09-02T13:41:19.954Z,102674.17
2018-09-02T13:43:49.190Z,102670.55
2018-09-02T13:46:17.317Z,102670.21
2018-09-02T13:48:46.107Z,102672.83
2018-09-02T13:51:14.442Z,102670.59
2018-09-02T13:53:42.195Z,102668.64
2018-09-02T13:56:10.516Z,102676.62
2018-09-02T13:58:39.429Z,102675.31
2018-09-02T14:01:07.244Z,102673.02
2018-09-02T14:03:36.069Z,102672.23
2018-09-02T14:06:04.399Z,102675.70
2018-09-02T14:08:32.737Z,102672.66
2018-09-02T14:11:01.072Z,102668.40
2018-09-02T14:13:29.404Z,102674.37
2018-09-02T14:15:57.737Z,102678.44
2018-09-02T14:18:26.174Z,102677.61
2018-09-02T14:20:55.204Z,102674.98
2018-09-02T14:23:23.547Z,102679.78
2018-09-02T14:25:51.875Z,102680.86
2018-09-02T14:28:20.267Z,102677.05
2018-09-02T14:30:48.540Z,102681.21
2018-09-02T14:33:17.139Z,102684.93
2018-09-02T14:35:46.580Z,102682.91
2018-09-02T14:38:14.238Z,102681.13
2018-09-02T14:40:43.582Z,102682.98
2018-09-02T14:43:11.365Z,102684.41
2018-09-02T14:45:41.508Z,102686.43
2018-09-02T14:48:09.276Z,102691.18
2018-09-02T14:50:38.212Z,102688.36
2018-09-02T14:53:05.939Z,102689.36
2018-09-02T14:55:34.843Z,102686.73
2018-09-02T14:58:03.170Z,102686.07
2018-09-02T15:00:30.958Z,102678.30
2018-09-02T15:02:59.293Z,102677.03
2018-09-02T15:05:29.201Z,102674.45
2018-09-02T15:07:56.300Z,102674.30
2018-09-02T15:10:25.127Z,102673.87
2018-09-02T15:12:53.458Z,102676.68
2018-09-02T15:15:21.778Z,102676.19
2018-09-02T15:17:50.101Z,102670.74
2018-09-02T15:20:18.455Z,102664.23
2018-09-02T15:22:46.793Z,102665.91
2018-09-02T15:25:15.110Z,102669.45
2018-09-02T15:27:42.858Z,102671.91
2018-09-02T15:30:12.360Z,102663.26
2018-09-02T15:32:40.681Z,102660.20
2018-09-02T15:35:10.478Z,102658.56
2018-09-02T15:37:38.236Z,102655.77
2018-09-02T15:40:07.143Z,102655.77
2018-09-02T15:42:35.462Z,102656.19
2018-09-02T15:45:03.255Z,102651.70
2018-09-02T15:47:32.150Z,102647.08
2018-09-02T15:49:59.896Z,102647.84
2018-09-02T15:52:29.667Z,102650.08
2018-09-02T15:54:58.763Z,102651.38
2018-09-02T15:57:26.516Z,102646.70
2018-09-02T15:59:54.834Z,102644.39
2018-09-02T16:02:24.988Z,102638.40
2018-09-02T16:04:53.317Z,102641.19
2018-09-02T16:07:21.633Z,102646.36
2018-09-02T16:09:51.551Z,102638.95
2018-09-02T16:12:20.454Z,102639.72
2018-09-02T16:14:48.780Z,102635.43
2018-09-02T16:17:17.168Z,102636.52
2018-09-02T16:19:45.492Z,102636.02
2018-09-02T16:22:14.388Z,102635.23
2018-09-02T16:24:42.716Z,102625.45
2018-09-02T16:27:11.688Z,102625.38
2018-09-02T16:29:39.863Z,102622.31
2018-09-02T16:32:08.152Z,102620.14
2018-09-02T16:34:36.747Z,102615.43
2018-09-02T16:37:04.501Z,102611.64
2018-09-02T16:39:32.826Z,102611.08
2018-09-02T16:42:02.068Z,102616.34
2018-09-02T16:44:30.394Z,102616.41
2018-09-02T16:46:59.359Z,102614.27
2018-09-02T16:49:28.102Z,102615.74
2018-09-02T16:51:56.998Z,102614.67
2018-09-02T16:54:25.322Z,102621.59
2018-09-02T16:56:53.677Z,102617.35
2018-09-02T16:59:22.151Z,102616.73
2018-09-02T17:01:50.486Z,102617.97
2018-09-02T17:04:19.841Z,102615.20
2018-09-02T17:06:47.633Z,102620.20
2018-09-02T17:09:15.959Z,102620.19
2018-09-02T17:11:44.942Z,102616.98
2018-09-02T17:14:13.189Z,102614.89
2018-09-02T17:16:41.913Z,102616.14
2018-09-02T17:19:10.472Z,102619.70
2018-09-02T17:21:40.083Z,102625.00
2018-09-02T17:24:08.413Z,102628.44
2018-09-02T17:26:36.164Z,102631.92
2018-09-02T17:29:05.084Z,102634.63
2018-09-02T17:31:33.415Z,102637.80
2018-09-02T17:34:01.781Z,102633.87
2018-09-02T17:36:29.481Z,102639.09
2018-09-02T17:38:58.422Z,102639.31
2018-09-02T17:41:26.758Z,102637.29
2018-09-02T17:43:55.091Z,102637.11
2018-09-02T17:46:25.029Z,102635.77
2018-09-02T17:48:52.141Z,102634.50
2018-09-02T17:51:20.513Z,102636.82
2018-09-02T17:53:48.400Z,102635.66
2018-09-02T17:56:17.164Z,102636.52
2018-09-02T17:58:45.514Z,102642.42
2018-09-02T18:01:13.839Z,102641.29
2018-09-02T18:03:42.159Z,102640.64
2018-09-02T18:06:10.497Z,102641.98
2018-09-02T18:08:39.047Z,102641.69
2018-09-02T18:11:06.757Z,102646.20
2018-09-02T18:13:35.666Z,102650.89
2018-09-02T18:16:04.003Z,102648.82
2018-09-02T18:18:32.336Z,102649.78
2018-09-02T18:21:00.695Z,102647.92
2018-09-02T18:23:28.459Z,102652.22
2018-09-02T18:25:57.342Z,102653.02
2018-09-02T18:28:25.681Z,102653.17
2018-09-02T18:30:54.035Z,102649.75
2018-09-02T18:33:22.359Z,102648.30
2018-09-02T18:35:51.310Z,102655.56
2018-09-02T18:38:19.645Z,102653.45
2018-09-02T18:40:47.978Z,102652.19
2018-09-02T18:43:16.322Z,102656.52
2018-09-02T18:45:44.665Z,102652.31
2018-09-02T18:48:13.025Z,102651.67
2018-09-02T18:50:41.463Z,102654.46
2018-09-02T18:53:09.822Z,102654.06
2018-09-02T18:55:38.192Z,102653.72
2018-09-02T18:58:06.525Z,102652.80
2018-09-02T19:00:34.907Z,102655.44
2018-09-02T19:03:03.324Z,102658.45
2018-09-02T19:05:31.583Z,102657.22
2018-09-02T19:07:59.910Z,102653.92
2018-09-02T19:10:28.265Z,102648.73
2018-09-02T19:12:56.081Z,102649.45
2018-09-02T19:15:25.033Z,102649.02
2018-09-02T19:17:52.837Z,102641.92
2018-09-02T19:20:21.183Z,102644.94
2018-09-02T19:22:50.186Z,102646.62
2018-09-02T19:25:18.514Z,102643.02
2018-09-02T19:27:46.933Z,102641.13
2018-09-02T19:30:15.404Z,102639.25
2018-09-02T19:32:43.749Z,102634.25
2018-09-02T19:35:12.075Z,102635.91
2018-09-02T19:37:40.422Z,102637.56
2018-09-02T19:40:10.776Z,102636.20
2018-09-02T19:42:40.795Z,102636.25
2018-09-02T19:45:09.204Z,102634.78
2018-09-02T19:47:38.419Z,102636.61
2018-09-02T19:50:06.777Z,102634.61
2018-09-02T19:52:38.378Z,102637.15
2018-09-02T19:55:05.655Z,102636.27
2018-09-02T19:57:34.040Z,102639.22
2018-09-02T20:00:02.406Z,102638.92
2018-09-02T20:02:30.162Z,102638.86
2018-09-02T20:04:59.065Z,102639.87
2018-09-02T20:07:26.920Z,102638.54
2018-09-02T20:09:55.917Z,102633.86
2018-09-02T20:12:24.290Z,102633.24
2018-09-02T20:14:52.703Z,102632.14
2018-09-02T20:17:20.554Z,102634.78
2018-09-02T20:19:49.611Z,102634.34
2018-09-02T20:22:17.977Z,102627.81
2018-09-02T20:24:46.329Z,102622.28
2018-09-02T20:27:14.121Z,102623.88
2018-09-02T20:29:42.478Z,102620.70
2018-09-02T20:32:11.443Z,102617.33
2018-09-02T20:34:39.775Z,102615.46
2018-09-02T20:37:08.162Z,102615.37
2018-09-02T20:39:36.512Z,102615.73
2018-09-02T20:42:04.900Z,102616.37
2018-09-02T20:44:33.441Z,102611.23
2018-09-02T20:47:01.544Z,102612.80
2018-09-02T20:49:29.968Z,102608.93
2018-09-02T20:51:57.875Z,102609.06
2018-09-02T20:54:26.715Z,102614.38
2018-09-02T20:56:55.047Z,102610.44
2018-09-02T20:59:22.802Z,102609.98
2018-09-02T21:01:51.722Z,102607.49
2018-09-02T21:04:20.053Z,102608.31
2018-09-02T21:06:48.402Z,102609.36
2018-09-02T21:09:16.714Z,102606.42
2018-09-02T21:11:45.076Z,102605.87
2018-09-02T21:14:13.429Z,102603.14
2018-09-02T21:16:41.770Z,102598.69
2018-09-02T21:19:10.120Z,102598.20
2018-09-02T21:21:38.484Z,102598.46
2018-09-02T21:24:06.243Z,102594.75
2018-09-02T21:26:35.293Z,102595.69
2018-09-02T21:29:03.608Z,102598.70
2018-09-02T21:31:31.937Z,102594.65
2018-09-02T21:34:00.273Z,102595.60
2018-09-02T21:36:28.606Z,102596.27
2018-09-02T21:38:56.927Z,102589.41
2018-09-02T21:41:25.299Z,102592.92
2018-09-02T21:43:53.830Z,102590.30
2018-09-02T21:46:21.928Z,102590.73
2018-09-02T21:48:49.679Z,102587.72
2018-09-02T21:51:18.002Z,102582.14
2018-09-02T21:53:48.905Z,102578.41
2018-09-02T21:56:16.684Z,102575.55
2018-09-02T21:58:45.636Z,102576.77
2018-09-02T22:01:13.982Z,102574.00
2018-09-02T22:03:42.338Z,102570.91
2018-09-02T22:06:11.633Z,102566.86
2018-09-02T22:08:38.996Z,102563.42
2018-09-02T22:11:06.850Z,102565.91
2018-09-02T22:13:35.652Z,102562.08
2018-09-02T22:16:03.992Z,102565.34
2018-09-02T22:18:35.796Z,102566.86
2018-09-02T22:21:04.245Z,102571.82
2018-09-02T22:23:32.761Z,102567.09
2018-09-02T22:26:02.132Z,102572.19
2018-09-02T22:28:29.890Z,102572.12
2018-09-02T22:30:58.900Z,102569.16
2018-09-02T22:33:26.978Z,102566.84
2018-09-02T22:35:57.145Z,102568.72
2018-09-02T22:38:24.372Z,102570.82
2018-09-02T22:40:56.486Z,102567.21
2018-09-02T22:43:24.402Z,102566.09
2018-09-02T22:45:52.664Z,102566.91
2018-09-02T22:48:20.993Z,102566.11
2018-09-02T22:50:49.900Z,102565.76
2018-09-02T22:53:18.957Z,102572.30
2018-09-02T22:55:47.358Z,102578.70
2018-09-02T22:58:17.153Z,102574.03
2018-09-02T23:00:46.717Z,102572.82
2018-09-02T23:03:15.027Z,102570.86
2018-09-02T23:05:43.652Z,102569.42
2018-09-02T23:08:11.959Z,102565.39
2018-09-02T23:10:40.285Z,102560.49
2018-09-02T23:13:08.614Z,102558.38
2018-09-02T23:15:36.924Z,102558.51
2018-09-02T23:18:05.491Z,102561.38
2018-09-02T23:20:33.790Z,102554.83
2018-09-02T23:23:02.708Z,102552.37
2018-09-02T23:25:36.503Z,102547.01
2018-09-02T23:28:03.542Z,102542.11
2018-09-02T23:30:32.567Z,102538.68
2018-09-02T23:33:01.167Z,102538.20
2018-09-02T23:35:28.915Z,102537.42
2018-09-02T23:37:57.232Z,102538.63
2018-09-02T23:40:29.406Z,102537.52
2018-09-02T23:42:56.020Z,102532.17
2018-09-02T23:45:24.358Z,102533.91
2018-09-02T23:47:52.722Z,102536.08
2018-09-02T23:50:20.923Z,102534.94
2018-09-02T23:52:49.257Z,102539.51
2018-09-02T23:55:18.174Z,102537.92
2018-09-02T23:57:46.496Z,102543.37
